Time;durP1;ratioP1;P1;durP2;ratioP2;P2;SDS_P1;SDS_P2;PMS_P1;PMS_P2;Temp;Humidity;BMP_temperature;BMP_pressure;BME280_temperature;BME280_humidity;BME280_pressure;Samples;Min_cycle;Max_cycle;Signal;HPM_P1;HPM_P2
2022/09/18 00:02:13;;;;;;;11.38;1.90;;;10.70;99.90;;;;;;5055039;28;20453;-68
2022/09/18 00:04:38;;;;;;;17.15;1.92;;;10.70;99.90;;;;;;5058310;28;20506;-69
2022/09/18 00:07:04;;;;;;;13.43;1.98;;;10.70;99.90;;;;;;5059364;28;20060;-68
2022/09/18 00:09:30;;;;;;;12.27;1.83;;;10.80;99.90;;;;;;5059663;28;20047;-68
2022/09/18 00:11:56;;;;;;;11.40;1.65;;;10.70;99.90;;;;;;5053678;28;20124;-69
2022/09/18 00:14:22;;;;;;;19.42;2.30;;;10.80;99.90;;;;;;5069932;28;20439;-69
2022/09/18 00:16:49;;;;;;;16.08;2.28;;;10.70;99.90;;;;;;5075341;28;20047;-70
2022/09/18 00:19:16;;;;;;;13.95;2.10;;;10.70;99.90;;;;;;5058262;28;20158;-69
2022/09/18 00:21:45;;;;;;;14.05;1.73;;;10.70;99.90;;;;;;5061700;28;20048;-68
2022/09/18 00:24:11;;;;;;;11.02;1.50;;;10.80;99.90;;;;;;5050160;28;20053;-68
2022/09/18 00:26:38;;;;;;;14.15;1.75;;;10.70;99.90;;;;;;5059919;28;20166;-67
2022/09/18 00:29:04;;;;;;;12.68;1.77;;;10.70;99.90;;;;;;5066227;28;20041;-68
2022/09/18 00:31:33;;;;;;;14.38;1.75;;;10.70;99.90;;;;;;5057421;28;20178;-69
2022/09/18 00:34:02;;;;;;;12.18;1.80;;;10.80;99.90;;;;;;5055545;28;20032;-66
2022/09/18 00:36:29;;;;;;;17.25;1.88;;;10.90;99.90;;;;;;5048647;28;20037;-68
2022/09/18 00:38:55;;;;;;;22.10;1.70;;;10.70;99.90;;;;;;5051774;28;20040;-68
2022/09/18 00:41:30;;;;;;;13.55;2.28;;;10.70;99.90;;;;;;5058098;28;20037;-68
2022/09/18 00:44:27;;;;;;;11.00;1.60;;;10.80;99.90;;;;;;5060212;28;20553;-67
2022/09/18 00:46:55;;;;;;;17.38;1.92;;;10.90;99.90;;;;;;5058222;28;20048;-70
2022/09/18 00:49:24;;;;;;;13.25;1.80;;;10.80;99.90;;;;;;5044529;28;20102;-69
2022/09/18 00:51:54;;;;;;;14.35;1.80;;;11.00;99.90;;;;;;5061263;28;20044;-69
2022/09/18 00:54:33;;;;;;;14.02;1.70;;;10.90;99.90;;;;;;5058574;28;20271;-68
2022/09/18 00:57:04;;;;;;;9.63;1.50;;;10.90;99.90;;;;;;5065819;28;20498;-70
2022/09/18 00:59:32;;;;;;;9.40;1.60;;;10.90;99.90;;;;;;5060274;28;20139;-70
2022/09/18 01:01:59;;;;;;;10.18;1.60;;;10.90;99.90;;;;;;5054505;28;20442;-68
2022/09/18 01:04:25;;;;;;;11.75;1.60;;;11.00;99.90;;;;;;5055829;28;20040;-69
2022/09/18 01:06:59;;;;;;;11.05;2.05;;;11.00;99.90;;;;;;5054576;28;20067;-70
2022/09/18 01:09:56;;;;;;;12.48;1.77;;;11.00;99.90;;;;;;5056703;28;20132;-69
2022/09/18 01:12:34;;;;;;;12.57;2.38;;;11.00;99.90;;;;;;5054839;28;20072;-71
2022/09/18 01:15:27;;;;;;;7.60;1.17;;;10.90;99.90;;;;;;5070701;28;20044;-68
2022/09/18 01:18:27;;;;;;;14.88;2.03;;;11.10;99.90;;;;;;5062915;28;20052;-67
2022/09/18 01:20:52;;;;;;;11.93;1.67;;;11.00;99.90;;;;;;5049414;28;20498;-70
2022/09/18 01:24:05;;;;;;;8.38;1.45;;;11.00;99.90;;;;;;5047408;28;20059;-71
2022/09/18 01:26:53;;;;;;;9.57;1.92;;;11.00;99.90;;;;;;5048642;28;20136;-69
2022/09/18 01:29:36;;;;;;;8.18;1.40;;;11.10;99.90;;;;;;5059006;28;20049;-70
2022/09/18 01:32:15;;;;;;;;;;;11.10;99.90;;;;;;5066084;28;20475;-68
2022/09/18 01:34:43;;;;;;;9.75;1.30;;;11.20;99.90;;;;;;5044293;28;20002;-69
2022/09/18 01:37:27;;;;;;;12.10;1.60;;;11.20;99.90;;;;;;5053206;28;20487;-75
2022/09/18 01:40:01;;;;;;;7.15;1.15;;;11.20;99.90;;;;;;5067769;28;20090;-70
2022/09/18 01:42:29;;;;;;;10.75;1.40;;;11.10;99.90;;;;;;5062729;28;20128;-71
2022/09/18 01:45:00;;;;;;;11.18;1.60;;;11.20;99.90;;;;;;5060630;28;20044;-71
2022/09/18 01:47:31;;;;;;;9.90;1.63;;;11.30;99.90;;;;;;5047644;28;20151;-69
2022/09/18 01:50:00;;;;;;;9.93;1.23;;;11.30;99.90;;;;;;5058282;28;20399;-71
2022/09/18 01:52:47;;;;;;;12.95;1.60;;;11.30;99.90;;;;;;5062450;28;20131;-70
2022/09/18 01:55:20;;;;;;;10.73;1.58;;;11.20;99.90;;;;;;5049587;28;20049;-70
2022/09/18 01:57:56;;;;;;;9.68;1.45;;;11.30;99.90;;;;;;5064073;28;20447;-70
2022/09/18 02:00:23;;;;;;;4.90;1.38;;;11.20;99.90;;;;;;5050281;28;20044;-69
2022/09/18 02:03:12;;;;;;;9.75;1.25;;;11.10;99.90;;;;;;5043896;28;20055;-68
2022/09/18 02:06:00;;;;;;;9.30;1.50;;;11.10;99.90;;;;;;5042331;28;20049;-69
2022/09/18 02:08:28;;;;;;;7.35;1.10;;;11.10;99.90;;;;;;5050156;28;20050;-71
2022/09/18 02:11:05;;;;;;;8.45;1.30;;;11.10;99.90;;;;;;5048203;28;20143;-70
2022/09/18 02:13:39;;;;;;;4.43;1.27;;;11.20;99.90;;;;;;5047891;28;20128;-69
2022/09/18 02:16:12;;;;;;;8.10;1.25;;;11.20;99.90;;;;;;5047395;28;20048;-71
2022/09/18 02:18:46;;;;;;;8.55;1.33;;;11.10;99.90;;;;;;5049389;28;20060;-71
2022/09/18 02:21:16;;;;;;;11.75;1.23;;;11.20;99.90;;;;;;5045032;28;20128;-71
2022/09/18 02:23:42;;;;;;;8.88;1.30;;;11.20;99.90;;;;;;5049847;28;20482;-73
2022/09/18 02:26:10;;;;;;;5.35;1.00;;;11.10;99.90;;;;;;5049908;28;20376;-70
2022/09/18 02:28:37;;;;;;;4.70;1.00;;;11.10;99.90;;;;;;5050186;28;20051;-69
2022/09/18 02:31:03;;;;;;;7.28;1.15;;;11.10;99.90;;;;;;5060909;28;20127;-70
2022/09/18 02:33:35;;;;;;;7.10;1.10;;;10.90;99.90;;;;;;5047016;28;20558;-70
2022/09/18 02:36:19;;;;;;;4.82;0.95;;;10.90;99.90;;;;;;5049142;28;20130;-71
2022/09/18 02:39:07;;;;;;;7.65;1.27;;;10.90;99.90;;;;;;5049143;28;20056;-71
2022/09/18 02:42:04;;;;;;;8.98;1.00;;;10.90;99.90;;;;;;5061207;28;20505;-69
2022/09/18 02:44:44;;;;;;;8.32;1.00;;;10.90;99.90;;;;;;5034571;28;20499;-69
2022/09/18 02:47:33;;;;;;;6.22;1.60;;;10.80;99.90;;;;;;5051839;28;20167;-69
2022/09/18 02:50:17;;;;;;;4.50;1.10;;;10.80;99.90;;;;;;5044794;28;20041;-71
2022/09/18 02:53:00;;;;;;;7.07;1.05;;;11.00;99.90;;;;;;5044459;28;20395;-70
2022/09/18 02:56:06;;;;;;;5.50;0.90;;;10.90;99.90;;;;;;5046094;28;20052;-69
2022/09/18 02:58:43;;;;;;;5.68;1.00;;;10.80;99.90;;;;;;5041382;28;20465;-69
2022/09/18 03:01:10;;;;;;;7.32;1.08;;;10.80;99.90;;;;;;5044078;28;20507;-68
2022/09/18 03:03:37;;;;;;;8.52;1.10;;;10.80;99.90;;;;;;5045913;28;20044;-69
2022/09/18 03:06:04;;;;;;;6.93;1.00;;;10.90;99.90;;;;;;5046631;28;20172;-69
2022/09/18 03:08:30;;;;;;;6.15;1.10;;;11.00;99.90;;;;;;5045369;28;20226;-68
2022/09/18 03:10:55;;;;;;;5.63;1.27;;;10.80;99.90;;;;;;5043592;28;20036;-70
2022/09/18 03:13:21;;;;;;;8.60;1.40;;;10.80;99.90;;;;;;5045088;28;20036;-68
2022/09/18 03:15:47;;;;;;;7.22;1.13;;;10.90;99.90;;;;;;5043260;28;20083;-72
2022/09/18 03:18:13;;;;;;;8.32;1.08;;;10.90;99.90;;;;;;5044576;28;20045;-69
2022/09/18 03:20:41;;;;;;;9.82;1.30;;;10.80;99.90;;;;;;5063116;28;20041;-70
2022/09/18 03:23:07;;;;;;;8.30;1.17;;;11.00;99.90;;;;;;5047498;28;20121;-68
2022/09/18 03:25:33;;;;;;;6.75;1.38;;;10.80;99.90;;;;;;5051205;28;20032;-69
2022/09/18 03:27:58;;;;;;;7.63;1.35;;;11.00;99.90;;;;;;5055650;28;20127;-67
2022/09/18 03:30:24;;;;;;;9.10;2.17;;;10.90;99.90;;;;;;5054390;28;20041;-67
2022/09/18 03:32:49;;;;;;;7.82;1.25;;;10.80;99.90;;;;;;5066581;28;20051;-67
2022/09/18 03:35:15;;;;;;;8.10;1.38;;;10.90;99.90;;;;;;5068605;28;20036;-66
2022/09/18 03:37:40;;;;;;;9.73;1.38;;;10.70;99.90;;;;;;5051655;28;20123;-66
2022/09/18 03:40:07;;;;;;;8.65;1.13;;;10.80;99.90;;;;;;5049271;28;20633;-67
2022/09/18 03:42:33;;;;;;;5.97;1.02;;;10.70;99.90;;;;;;5029919;28;20041;-66
2022/09/18 03:44:58;;;;;;;9.05;1.20;;;10.90;99.90;;;;;;5045194;28;20090;-67
2022/09/18 03:47:25;;;;;;;7.88;1.30;;;10.70;99.90;;;;;;5048064;28;20138;-66
2022/09/18 03:49:51;;;;;;;6.35;1.63;;;10.70;99.90;;;;;;5055428;28;20032;-66
2022/09/18 03:52:17;;;;;;;8.52;1.30;;;10.80;99.90;;;;;;5045576;28;20612;-67
2022/09/18 03:54:42;;;;;;;9.63;1.60;;;10.70;99.90;;;;;;5038002;28;20786;-65
2022/09/18 03:57:08;;;;;;;10.15;1.33;;;10.70;99.90;;;;;;5050733;28;20032;-67
2022/09/18 03:59:33;;;;;;;10.52;1.35;;;10.70;99.90;;;;;;5051288;28;20410;-66
2022/09/18 04:01:59;;;;;;;8.20;1.00;;;10.70;99.90;;;;;;5047487;28;20483;-66
2022/09/18 04:04:26;;;;;;;4.80;1.10;;;10.70;99.90;;;;;;5051702;28;20164;-67
2022/09/18 04:06:51;;;;;;;9.02;1.67;;;10.80;99.90;;;;;;5049147;28;20436;-67
2022/09/18 04:09:17;;;;;;;8.68;1.30;;;10.70;99.90;;;;;;5049738;28;20032;-66
2022/09/18 04:11:42;;;;;;;6.35;1.05;;;10.70;99.90;;;;;;5052577;28;20109;-68
2022/09/18 04:14:08;;;;;;;9.35;1.45;;;10.90;99.90;;;;;;5057980;28;20116;-70
2022/09/18 04:16:34;;;;;;;9.55;1.70;;;10.80;99.90;;;;;;5060210;28;20060;-68
2022/09/18 04:18:59;;;;;;;9.50;1.33;;;10.90;99.90;;;;;;5058321;28;20037;-69
2022/09/18 04:21:25;;;;;;;10.52;1.58;;;10.90;99.90;;;;;;5056084;28;20483;-70
2022/09/18 04:23:50;;;;;;;8.85;1.42;;;10.80;99.90;;;;;;5045840;28;20040;-68
2022/09/18 04:26:16;;;;;;;7.68;1.35;;;10.90;99.90;;;;;;5065081;28;20103;-69
2022/09/18 04:28:42;;;;;;;9.25;1.20;;;10.90;99.90;;;;;;5058932;28;20055;-68
2022/09/18 04:31:07;;;;;;;9.23;1.45;;;10.80;99.90;;;;;;5056757;28;20028;-67
2022/09/18 04:33:33;;;;;;;9.65;1.15;;;10.80;99.90;;;;;;5054017;28;20036;-69
2022/09/18 04:35:58;;;;;;;5.18;1.20;;;10.80;99.90;;;;;;5060759;28;20040;-68
2022/09/18 04:38:28;;;;;;;9.40;1.20;;;10.80;99.90;;;;;;5054473;28;20475;-69
2022/09/18 04:40:57;;;;;;;5.90;1.17;;;10.90;99.90;;;;;;5046252;28;20041;-70
2022/09/18 04:43:24;;;;;;;10.18;1.35;;;11.00;99.90;;;;;;5054036;28;20376;-69
2022/09/18 04:45:50;;;;;;;7.43;1.30;;;10.90;99.90;;;;;;5054610;28;20049;-69
2022/09/18 04:48:18;;;;;;;6.80;1.20;;;11.00;99.90;;;;;;5057827;28;20487;-72
2022/09/18 04:50:45;;;;;;;5.45;0.90;;;10.90;99.90;;;;;;5071329;28;20029;-68
2022/09/18 04:53:11;;;;;;;12.63;1.10;;;10.90;99.90;;;;;;5039253;28;20041;-69
2022/09/18 04:55:37;;;;;;;6.40;1.00;;;10.90;99.90;;;;;;5063737;28;20041;-68
2022/09/18 04:58:02;;;;;;;5.15;0.95;;;10.80;99.90;;;;;;5052855;28;20511;-68
2022/09/18 05:00:28;;;;;;;6.80;1.00;;;10.90;99.90;;;;;;5052040;28;20041;-69
2022/09/18 05:02:54;;;;;;;11.10;1.20;;;10.80;99.90;;;;;;5045400;28;20110;-70
2022/09/18 05:05:20;;;;;;;7.47;1.17;;;10.90;99.90;;;;;;5052686;28;20602;-69
2022/09/18 05:07:46;;;;;;;4.95;0.90;;;10.80;99.90;;;;;;5053744;28;20128;-70
2022/09/18 05:10:11;;;;;;;8.57;1.33;;;10.70;99.90;;;;;;5049368;28;20499;-68
2022/09/18 05:12:41;;;;;;;8.35;1.23;;;10.70;99.90;;;;;;5048075;28;20147;-69
2022/09/18 05:15:07;;;;;;;7.90;1.30;;;10.80;99.90;;;;;;5048597;28;20480;-69
2022/09/18 05:17:33;;;;;;;10.07;1.08;;;10.70;99.90;;;;;;5048469;28;20132;-70
2022/09/18 05:19:58;;;;;;;7.05;1.25;;;10.70;99.90;;;;;;5052298;28;20151;-69
2022/09/18 05:22:24;;;;;;;5.75;1.10;;;10.80;99.90;;;;;;5065820;28;20098;-71
2022/09/18 05:24:50;;;;;;;9.75;1.55;;;10.70;99.90;;;;;;5066855;28;20040;-68
2022/09/18 05:27:15;;;;;;;8.90;1.25;;;10.80;99.90;;;;;;5053061;28;20390;-71
2022/09/18 05:29:41;;;;;;;3.28;0.77;;;10.70;99.90;;;;;;5051688;28;20159;-68
2022/09/18 05:32:07;;;;;;;9.35;1.20;;;10.80;99.90;;;;;;5045903;28;20044;-70
2022/09/18 05:34:33;;;;;;;6.03;0.88;;;10.70;99.90;;;;;;5054175;28;20028;-68
2022/09/18 05:36:58;;;;;;;6.82;1.10;;;10.90;99.90;;;;;;5048952;28;20047;-68
2022/09/18 05:39:24;;;;;;;5.25;1.20;;;10.70;99.90;;;;;;5066018;28;20036;-67
2022/09/18 05:41:50;;;;;;;9.30;1.10;;;10.70;99.90;;;;;;5045132;28;20041;-69
2022/09/18 05:44:17;;;;;;;5.55;0.90;;;10.80;99.90;;;;;;5049048;28;20041;-71
2022/09/18 05:46:42;;;;;;;9.38;1.40;;;10.70;99.90;;;;;;5047904;28;20037;-68
2022/09/18 05:49:08;;;;;;;5.00;1.20;;;10.70;99.90;;;;;;5049084;28;20094;-70
2022/09/18 05:51:33;;;;;;;5.32;1.00;;;10.80;99.90;;;;;;5044259;28;20037;-68
2022/09/18 05:53:59;;;;;;;4.80;1.50;;;10.80;99.90;;;;;;5050664;28;20513;-70
2022/09/18 05:56:26;;;;;;;4.65;0.90;;;10.70;99.90;;;;;;5045877;28;20044;-68
2022/09/18 05:58:51;;;;;;;9.48;1.05;;;10.70;99.90;;;;;;5066086;28;20044;-69
2022/09/18 06:01:17;;;;;;;4.97;0.93;;;10.60;99.90;;;;;;5045629;28;20101;-69
2022/09/18 06:03:43;;;;;;;5.25;1.00;;;10.70;99.90;;;;;;5046022;28;20402;-69
2022/09/18 06:06:08;;;;;;;7.10;1.10;;;10.80;99.90;;;;;;5046907;28;20045;-69
2022/09/18 06:08:35;;;;;;;5.75;1.00;;;10.90;99.90;;;;;;5047171;28;20041;-69
2022/09/18 06:11:01;;;;;;;9.70;1.23;;;10.70;99.90;;;;;;5047751;28;20139;-70
2022/09/18 06:13:27;;;;;;;9.75;1.17;;;10.80;99.90;;;;;;5051096;28;20115;-70
2022/09/18 06:15:52;;;;;;;6.03;1.00;;;10.90;99.90;;;;;;5064043;28;20128;-68
2022/09/18 06:18:18;;;;;;;9.18;1.25;;;10.90;99.90;;;;;;5051221;28;21317;-68
2022/09/18 06:20:51;;;;;;;7.88;1.23;;;10.90;99.90;;;;;;5056313;28;20496;-68
2022/09/18 06:23:17;;;;;;;6.50;1.10;;;10.90;99.90;;;;;;5064244;28;20041;-70
2022/09/18 06:25:42;;;;;;;4.90;1.10;;;10.90;99.90;;;;;;5052715;28;20495;-68
2022/09/18 06:28:08;;;;;;;6.65;1.13;;;10.80;99.90;;;;;;5051966;28;20520;-68
2022/09/18 06:30:35;;;;;;;9.35;1.27;;;10.90;99.90;;;;;;5050906;28;20490;-67
2022/09/18 06:33:05;;;;;;;8.63;1.52;;;10.90;99.90;;;;;;5049610;28;20368;-68
2022/09/18 06:35:37;;;;;;;6.03;1.10;;;11.00;99.90;;;;;;5049020;28;20052;-69
2022/09/18 06:38:04;;;;;;;10.05;1.30;;;10.80;99.90;;;;;;5048772;28;20039;-69
2022/09/18 06:40:34;;;;;;;6.85;1.20;;;10.90;99.90;;;;;;5051142;28;20052;-68
2022/09/18 06:43:01;;;;;;;6.60;1.10;;;10.90;99.90;;;;;;5048217;28;20049;-69
2022/09/18 06:45:28;;;;;;;8.52;1.10;;;10.80;99.90;;;;;;5038514;28;20044;-68
2022/09/18 06:47:54;;;;;;;8.80;1.45;;;11.00;99.90;;;;;;5052874;28;20052;-68
2022/09/18 06:50:23;;;;;;;8.85;1.08;;;11.00;99.90;;;;;;5057788;28;20402;-69
2022/09/18 06:52:50;;;;;;;9.02;1.45;;;11.00;99.90;;;;;;5044552;28;20114;-69
2022/09/18 06:55:16;;;;;;;9.10;1.23;;;11.00;99.90;;;;;;5068771;28;20033;-70
2022/09/18 06:57:42;;;;;;;8.60;1.20;;;10.90;99.90;;;;;;5051074;28;20083;-69
2022/09/18 07:00:09;;;;;;;8.55;1.52;;;10.90;99.90;;;;;;5052342;28;20124;-69
2022/09/18 07:02:35;;;;;;;8.00;1.38;;;10.90;99.90;;;;;;5064724;28;20049;-69
2022/09/18 07:05:01;;;;;;;9.85;1.15;;;11.10;99.90;;;;;;5062280;28;20372;-69
2022/09/18 07:07:26;;;;;;;6.18;1.48;;;11.10;99.90;;;;;;5053582;28;20044;-69
2022/09/18 07:09:52;;;;;;;5.78;1.00;;;11.00;99.90;;;;;;5053232;28;20037;-70
2022/09/18 07:12:17;;;;;;;8.45;1.25;;;11.10;99.90;;;;;;5060684;28;20049;-72
2022/09/18 07:14:43;;;;;;;10.25;1.30;;;11.10;99.90;;;;;;5058859;28;20069;-70
2022/09/18 07:17:10;;;;;;;7.65;1.30;;;11.20;99.90;;;;;;5053878;28;20280;-68
2022/09/18 07:19:36;;;;;;;8.27;1.35;;;11.00;99.90;;;;;;5062842;28;20126;-71
2022/09/18 07:22:02;;;;;;;9.00;1.50;;;11.10;99.90;;;;;;5043678;28;20064;-70
2022/09/18 07:24:28;;;;;;;8.40;1.10;;;11.20;99.90;;;;;;5051137;28;20122;-69
2022/09/18 07:26:54;;;;;;;4.50;1.35;;;11.00;99.90;;;;;;5046334;28;20431;-69
2022/09/18 07:29:20;;;;;;;7.63;1.33;;;11.10;99.90;;;;;;5052773;28;20131;-69
2022/09/18 07:31:46;;;;;;;8.88;1.17;;;11.10;99.90;;;;;;5049218;28;20108;-69
2022/09/18 07:34:12;;;;;;;10.98;1.20;;;11.00;99.90;;;;;;5046876;28;20035;-70
2022/09/18 07:36:37;;;;;;;12.32;1.23;;;11.00;99.90;;;;;;5048727;28;20548;-70
2022/09/18 07:39:04;;;;;;;5.80;1.48;;;11.10;99.90;;;;;;5050328;28;20043;-69
2022/09/18 07:41:29;;;;;;;7.57;1.38;;;11.10;99.90;;;;;;5061412;28;20044;-70
2022/09/18 07:43:55;;;;;;;4.53;0.90;;;11.10;99.90;;;;;;5047972;28;20502;-71
2022/09/18 07:46:21;;;;;;;6.47;1.10;;;11.20;99.90;;;;;;5052522;28;20044;-72
2022/09/18 07:48:46;;;;;;;7.20;1.05;;;11.10;99.90;;;;;;5050219;28;20447;-72
2022/09/18 07:51:12;;;;;;;10.57;1.30;;;11.20;99.90;;;;;;5061923;28;20036;-69
2022/09/18 07:53:38;;;;;;;9.65;1.23;;;11.10;99.90;;;;;;5059800;28;20041;-71
2022/09/18 07:56:10;;;;;;;7.85;1.55;;;11.30;99.90;;;;;;5049299;28;20044;-69
2022/09/18 07:58:36;;;;;;;13.82;1.60;;;11.30;99.90;;;;;;5062102;28;20105;-69
2022/09/18 08:01:03;;;;;;;8.48;1.42;;;11.40;99.90;;;;;;5052030;28;20033;-72
2022/09/18 08:03:29;;;;;;;9.15;1.30;;;11.30;99.90;;;;;;5052459;28;20048;-69
2022/09/18 08:05:55;;;;;;;6.63;1.20;;;11.30;99.90;;;;;;5052278;28;20041;-69
2022/09/18 08:08:21;;;;;;;2.90;1.00;;;11.20;99.90;;;;;;5050071;28;20044;-70
2022/09/18 08:10:46;;;;;;;5.88;0.90;;;11.30;99.90;;;;;;5049306;28;20065;-70
2022/09/18 08:13:12;;;;;;;4.18;1.00;;;11.30;99.90;;;;;;5054267;28;20033;-68
2022/09/18 08:15:40;;;;;;;7.13;1.13;;;11.20;99.90;;;;;;5046977;28;20045;-67
2022/09/18 08:18:06;;;;;;;4.70;1.15;;;11.10;99.90;;;;;;5077229;28;20340;-70
2022/09/18 08:20:33;;;;;;;6.57;0.90;;;11.10;99.90;;;;;;5049152;28;20044;-72
2022/09/18 08:23:02;;;;;;;6.38;0.95;;;11.10;99.90;;;;;;5052187;28;20457;-71
2022/09/18 08:25:28;;;;;;;4.90;0.98;;;11.10;99.90;;;;;;5052818;28;20048;-68
2022/09/18 08:27:58;;;;;;;6.00;1.05;;;11.10;99.90;;;;;;5050233;28;20094;-71
2022/09/18 08:30:24;;;;;;;5.35;0.73;;;11.00;99.90;;;;;;5047095;28;20097;-70
2022/09/18 08:32:50;;;;;;;5.80;1.08;;;11.00;99.90;;;;;;5049123;28;20036;-68
2022/09/18 08:35:15;;;;;;;4.15;0.70;;;11.10;99.90;;;;;;5045915;28;20033;-70
2022/09/18 08:37:47;;;;;;;7.20;1.23;;;11.10;99.90;;;;;;5046519;28;20041;-68
2022/09/18 08:40:15;;;;;;;2.92;0.68;;;11.10;99.90;;;;;;5050604;28;20129;-69
2022/09/18 08:42:53;;;;;;;3.90;0.80;;;11.10;99.90;;;;;;5051963;28;20052;-70
2022/09/18 08:45:55;;;;;;;7.18;0.80;;;11.00;99.90;;;;;;5046812;28;20051;-70
2022/09/18 08:48:27;;;;;;;5.30;0.70;;;11.10;99.90;;;;;;5051101;28;20043;-71
2022/09/18 08:51:05;;;;;;;;;;;11.00;99.90;;;;;;5049569;28;20037;-70
2022/09/18 08:53:39;;;;;;;3.67;0.82;;;10.90;99.90;;;;;;5049497;28;20397;-71
2022/09/18 08:56:14;;;;;;;4.05;0.70;;;11.10;99.90;;;;;;5043410;28;20048;-71
2022/09/18 08:58:50;;;;;;;4.38;0.85;;;11.10;99.90;;;;;;5053145;28;20503;-69
2022/09/18 09:01:18;;;;;;;5.05;0.80;;;11.00;99.90;;;;;;5049206;28;20037;-71
2022/09/18 09:03:50;;;;;;;2.25;0.70;;;11.00;99.90;;;;;;5057235;28;20052;-71
2022/09/18 09:06:43;;;;;;;3.42;0.60;;;10.90;99.90;;;;;;5048807;28;20048;-72
2022/09/18 09:09:29;;;;;;;3.30;0.68;;;10.70;99.90;;;;;;5046708;28;20041;-69
2022/09/18 09:12:05;;;;;;;3.88;1.05;;;10.80;99.90;;;;;;5051598;28;20098;-69
2022/09/18 09:15:03;;;;;;;5.80;0.80;;;10.70;99.90;;;;;;5056564;28;20048;-69
2022/09/18 09:17:40;;;;;;;3.90;0.85;;;10.80;99.90;;;;;;5042327;28;20041;-69
2022/09/18 09:20:22;;;;;;;5.03;0.80;;;10.80;99.90;;;;;;5053228;28;20068;-70
2022/09/18 09:23:06;;;;;;;4.75;0.90;;;10.80;99.90;;;;;;5063383;28;20116;-70
2022/09/18 09:25:43;;;;;;;7.68;0.90;;;10.70;99.90;;;;;;5048274;28;20052;-71
2022/09/18 09:28:18;;;;;;;5.68;1.02;;;10.90;99.90;;;;;;5050776;28;20037;-70
2022/09/18 09:30:45;;;;;;;5.00;1.10;;;10.80;99.90;;;;;;5063334;28;20096;-70
2022/09/18 09:33:26;;;;;;;5.90;1.00;;;10.90;99.90;;;;;;5055999;28;20048;-68
2022/09/18 09:35:58;;;;;;;3.53;0.70;;;10.80;99.90;;;;;;5039217;28;20604;-69
2022/09/18 09:38:34;;;;;;;4.43;0.80;;;10.90;99.90;;;;;;5052080;28;20049;-73
2022/09/18 09:41:19;;;;;;;5.85;1.33;;;10.90;99.90;;;;;;5047606;28;20298;-70
2022/09/18 09:43:59;;;;;;;4.63;1.38;;;11.00;99.90;;;;;;5060780;28;20066;-69
2022/09/18 09:46:51;;;;;;;4.88;0.93;;;11.00;99.90;;;;;;5058490;28;20391;-71
2022/09/18 09:49:51;;;;;;;5.03;0.90;;;10.80;99.90;;;;;;5053112;28;20057;-73
2022/09/18 09:52:22;;;;;;;5.47;1.50;;;11.00;99.90;;;;;;4993209;28;20049;-71
2022/09/18 09:55:11;;;;;;;5.28;0.98;;;10.90;99.90;;;;;;5051318;28;20437;-71
2022/09/18 09:58:32;;;;;;;4.95;1.00;;;11.00;99.90;;;;;;5054040;28;20052;-70
2022/09/18 10:01:10;;;;;;;6.40;1.27;;;11.00;99.90;;;;;;5041757;28;20071;-71
2022/09/18 10:03:44;;;;;;;7.68;1.15;;;11.00;99.90;;;;;;5047069;28;20175;-71
2022/09/18 10:06:27;;;;;;;5.40;1.45;;;11.30;99.90;;;;;;5068747;28;20048;-70
2022/09/18 10:09:20;;;;;;;5.35;1.25;;;11.10;99.90;;;;;;5055670;28;20502;-72
2022/09/18 10:11:56;;;;;;;6.80;1.08;;;11.40;99.90;;;;;;5054701;28;20070;-71
2022/09/18 10:14:25;;;;;;;5.85;1.00;;;11.40;99.90;;;;;;5029226;28;20048;-71
2022/09/18 10:16:55;;;;;;;6.40;1.20;;;11.50;99.90;;;;;;5048442;28;20658;-68
2022/09/18 10:19:23;;;;;;;7.10;1.02;;;11.50;99.90;;;;;;5059742;28;20036;-71
2022/09/18 10:21:51;;;;;;;7.10;1.25;;;11.50;99.90;;;;;;5052139;28;20053;-70
2022/09/18 10:24:48;;;;;;;9.82;1.38;;;11.60;99.90;;;;;;5072895;28;20049;-71
2022/09/18 10:27:15;;;;;;;9.77;1.25;;;11.60;99.90;;;;;;5046510;28;20041;-70
2022/09/18 10:29:41;;;;;;;9.60;1.10;;;11.60;99.90;;;;;;5053325;28;20475;-71
2022/09/18 10:32:11;;;;;;;6.72;1.20;;;11.60;99.90;;;;;;5043675;28;20136;-70
2022/09/18 10:34:46;;;;;;;9.90;1.55;;;11.40;99.90;;;;;;5042429;28;20056;-72
2022/09/18 10:37:15;;;;;;;6.97;1.00;;;11.40;99.90;;;;;;5034737;28;20045;-68
2022/09/18 10:39:52;;;;;;;6.63;1.27;;;11.50;99.90;;;;;;5060074;28;20450;-71
2022/09/18 10:42:22;;;;;;;7.15;1.02;;;11.50;99.90;;;;;;5054972;28;20040;-72
2022/09/18 10:44:53;;;;;;;6.88;1.00;;;11.60;99.90;;;;;;5059705;28;20059;-70
2022/09/18 10:47:50;;;;;;;8.68;1.30;;;11.50;99.90;;;;;;5048689;28;20044;-70
2022/09/18 10:50:18;;;;;;;8.05;1.20;;;11.60;99.90;;;;;;5041498;28;20418;-69
2022/09/18 10:52:48;;;;;;;6.03;1.20;;;11.40;99.90;;;;;;5046269;28;20122;-70
2022/09/18 10:55:21;;;;;;;10.93;1.30;;;11.50;99.90;;;;;;5048150;28;20057;-69
2022/09/18 10:57:46;;;;;;;7.00;1.20;;;11.40;99.90;;;;;;5046451;28;20045;-70
2022/09/18 11:00:18;;;;;;;10.57;1.45;;;11.40;99.90;;;;;;5055470;28;20033;-70
2022/09/18 11:02:54;;;;;;;10.02;1.45;;;11.50;99.90;;;;;;5032915;28;20041;-71
2022/09/18 11:05:22;;;;;;;5.43;1.00;;;11.50;99.90;;;;;;5028800;28;20041;-69
2022/09/18 11:07:54;;;;;;;9.15;1.33;;;11.40;99.90;;;;;;5049687;28;20060;-69
2022/09/18 11:10:25;;;;;;;8.25;1.30;;;11.40;99.90;;;;;;5059928;28;20050;-68
2022/09/18 11:12:57;;;;;;;7.63;1.20;;;11.30;99.90;;;;;;5056452;28;20051;-69
2022/09/18 11:15:26;;;;;;;9.75;1.35;;;11.40;99.90;;;;;;5044817;28;20423;-69
2022/09/18 11:17:54;;;;;;;11.68;1.67;;;11.50;99.90;;;;;;5036700;28;20045;-68
2022/09/18 11:20:27;;;;;;;10.40;1.50;;;11.50;99.90;;;;;;5049291;28;20041;-69
2022/09/18 11:23:14;;;;;;;5.18;1.27;;;11.30;99.90;;;;;;5050607;28;20492;-68
2022/09/18 11:25:46;;;;;;;6.90;1.40;;;11.50;99.90;;;;;;5046816;28;20537;-69
2022/09/18 11:28:26;;;;;;;9.48;1.77;;;11.40;99.90;;;;;;5043990;28;20033;-69
2022/09/18 11:31:04;;;;;;;8.90;1.40;;;11.60;99.90;;;;;;5063661;28;20045;-69
2022/09/18 11:33:35;;;;;;;9.05;1.30;;;11.60;99.90;;;;;;5045724;28;20079;-70
2022/09/18 11:36:04;;;;;;;9.68;1.17;;;11.50;99.90;;;;;;5038104;28;20524;-70
2022/09/18 11:38:30;;;;;;;7.00;1.30;;;11.50;99.90;;;;;;5031839;28;20060;-69
2022/09/18 11:40:58;;;;;;;7.32;1.40;;;11.70;99.90;;;;;;5063180;28;20041;-69
2022/09/18 11:43:28;;;;;;;8.90;1.33;;;11.80;99.90;;;;;;5054192;28;20055;-69
2022/09/18 11:46:31;;;;;;;8.10;1.95;;;11.70;99.90;;;;;;5072048;28;20418;-69
2022/09/18 11:49:06;;;;;;;5.10;0.80;;;11.80;99.90;;;;;;5058538;28;20049;-69
2022/09/18 11:51:56;;;;;;;6.78;1.38;;;11.70;99.90;;;;;;5075408;28;20076;-71
2022/09/18 11:54:43;;;;;;;9.48;1.33;;;11.90;99.90;;;;;;5043102;28;20376;-68
2022/09/18 11:57:26;;;;;;;7.15;1.38;;;11.90;99.90;;;;;;5046026;28;20064;-69
2022/09/18 11:59:58;;;;;;;6.95;1.10;;;12.00;99.90;;;;;;5047730;28;20033;-68
2022/09/18 12:03:03;;;;;;;7.95;1.38;;;11.90;99.90;;;;;;5050517;28;20076;-73
2022/09/18 12:05:51;;;;;;;7.20;1.20;;;12.10;99.90;;;;;;5047050;28;20061;-70
2022/09/18 12:08:37;;;;;;;11.57;1.73;;;12.20;99.90;;;;;;5060096;28;20041;-68
2022/09/18 12:11:32;;;;;;;12.88;1.52;;;12.10;99.90;;;;;;5066919;28;20068;-69
2022/09/18 12:14:29;;;;;;;7.28;1.50;;;12.30;99.90;;;;;;5033776;28;20028;-72
2022/09/18 12:17:21;;;;;;;7.63;1.10;;;12.40;99.90;;;;;;5049637;28;20450;-69
2022/09/18 12:19:55;;;;;;;9.23;1.20;;;12.30;99.90;;;;;;5041460;28;20103;-71
2022/09/18 12:22:31;;;;;;;7.65;1.17;;;12.50;99.90;;;;;;5029955;28;20072;-70
2022/09/18 12:24:58;;;;;;;9.13;1.10;;;12.50;99.90;;;;;;5030458;28;20045;-68
2022/09/18 12:27:42;;;;;;;11.80;1.20;;;12.50;99.90;;;;;;5042778;28;20529;-71
2022/09/18 12:30:16;;;;;;;9.55;1.50;;;12.50;99.90;;;;;;5034402;28;20182;-72
2022/09/18 12:33:19;;;;;;;5.00;1.13;;;12.50;99.90;;;;;;5048752;28;20047;-68
2022/09/18 12:35:51;;;;;;;7.93;1.52;;;12.40;99.90;;;;;;5054374;28;20051;-71
2022/09/18 12:38:35;;;;;;;8.18;1.33;;;12.40;99.90;;;;;;5036370;28;20045;-69
2022/09/18 12:41:15;;;;;;;9.65;1.30;;;12.30;99.90;;;;;;5037273;28;20045;-68
2022/09/18 12:44:08;;;;;;;10.93;1.70;;;12.30;99.90;;;;;;5035729;28;20087;-65
2022/09/18 12:46:40;;;;;;;10.07;1.27;;;12.30;99.90;;;;;;5049336;28;20068;-68
2022/09/18 12:49:45;;;;;;;4.93;1.15;;;12.30;99.90;;;;;;5061398;28;20033;-75
2022/09/18 12:52:40;;;;;;;7.18;0.80;;;12.10;99.90;;;;;;5066664;28;20163;-75
2022/09/18 12:55:31;;;;;;;2.83;0.90;;;12.10;99.90;;;;;;5065732;28;20033;-73
2022/09/18 12:58:11;;;;;;;1.98;0.60;;;12.10;99.90;;;;;;5048803;28;20063;-73
2022/09/18 13:00:39;;;;;;;4.50;0.80;;;12.00;99.90;;;;;;5031378;28;20037;-69
2022/09/18 13:03:20;;;;;;;7.32;1.20;;;11.90;99.90;;;;;;5035014;28;20395;-67
2022/09/18 13:05:53;;;;;;;8.35;1.20;;;12.00;99.90;;;;;;5053423;28;20049;-66
2022/09/18 13:08:49;;;;;;;9.05;1.30;;;12.10;99.90;;;;;;5052039;28;20041;-68
2022/09/18 13:11:29;;;;;;;10.88;1.70;;;12.10;99.90;;;;;;5045970;28;20458;-68
2022/09/18 13:14:31;;;;;;;11.60;1.92;;;12.30;99.90;;;;;;5048809;28;20079;-68